Time;durP1;ratioP1;P1;durP2;ratioP2;P2;SDS_P1;SDS_P2;PMS_P1;PMS_P2;Temp;Humidity;BMP_temperature;BMP_pressure;BME280_temperature;BME280_humidity;BME280_pressure;Samples;Min_cycle;Max_cycle;Signal;HPM_P1;HPM_P2
2023/08/29 00:00:57;;;;;;;;;;;;;;;24.36;43.79;98886.03;3161379;28;19929;-72
2023/08/29 00:02:31;;;;;;;;;;;;;;;24.37;43.69;98885.03;3172343;28;20031;-71
2023/08/29 00:04:02;;;;;;;;;;;;;;;24.36;43.72;98884.19;3147467;28;20289;-71
2023/08/29 00:05:34;;;;;;;;;;;;;;;24.37;43.62;98883.19;3170399;28;19936;-71
2023/08/29 00:07:06;;;;;;;;;;;;;;;24.37;43.67;98890.34;3172085;28;19950;-71
2023/08/29 00:08:38;;;;;;;;;;;;;;;24.35;43.82;98892.38;3171992;28;20351;-71
2023/08/29 00:10:08;;;;;;;;;;;;;;;24.35;43.76;98895.03;3172370;28;19988;-70
2023/08/29 00:11:40;;;;;;;;;;;;;;;24.35;43.59;98903.84;3172261;28;20523;-71
2023/08/29 00:13:10;;;;;;;;;;;;;;;24.38;43.72;98895.50;3167463;28;20317;-71
2023/08/29 00:14:42;;;;;;;;;;;;;;;24.42;43.58;98896.81;3165860;28;19930;-72
2023/08/29 00:16:16;;;;;;;;;;;;;;;24.46;43.34;98897.28;3172163;28;19985;-72
2023/08/29 00:17:47;;;;;;;;;;;;;;;24.46;43.28;98900.78;3172136;28;19923;-71
2023/08/29 00:19:21;;;;;;;;;;;;;;;24.46;43.41;98905.25;3172277;28;19950;-72
2023/08/29 00:20:52;;;;;;;;;;;;;;;24.45;43.30;98908.94;3171804;28;19963;-71
2023/08/29 00:22:25;;;;;;;;;;;;;;;24.46;43.23;98908.78;3172007;28;19924;-72
2023/08/29 00:23:55;;;;;;;;;;;;;;;24.49;43.01;98910.22;3172112;28;19935;-72
2023/08/29 00:25:27;;;;;;;;;;;;;;;24.50;43.24;98915.38;3172010;28;20499;-71
2023/08/29 00:26:57;;;;;;;;;;;;;;;24.48;43.01;98908.56;3171843;28;19928;-72
2023/08/29 00:28:29;;;;;;;;;;;;;;;24.44;43.12;98915.28;3168051;28;20388;-72
2023/08/29 00:29:59;;;;;;;;;;;;;;;24.43;43.38;98913.59;3172376;28;19928;-72
2023/08/29 00:31:31;;;;;;;;;;;;;;;24.41;43.17;98913.75;3171897;28;19930;-72
2023/08/29 00:33:02;;;;;;;;;;;;;;;24.39;43.43;98907.78;3171825;28;19930;-72
2023/08/29 00:34:33;;;;;;;;;;;;;;;24.37;43.27;98908.97;3171811;28;19938;-72
2023/08/29 00:36:04;;;;;;;;;;;;;;;24.36;43.51;98915.31;3166379;28;20001;-72
2023/08/29 00:37:37;;;;;;;;;;;;;;;24.35;43.38;98909.16;3167597;28;19992;-72
2023/08/29 00:39:07;;;;;;;;;;;;;;;24.34;43.25;98902.16;3171572;28;20329;-72
2023/08/29 00:40:39;;;;;;;;;;;;;;;24.33;43.32;98905.03;3166372;28;19930;-72
2023/08/29 00:42:09;;;;;;;;;;;;;;;24.36;43.49;98907.31;3171891;28;19927;-70
2023/08/29 00:43:41;;;;;;;;;;;;;;;24.38;43.18;98908.81;3166943;28;19924;-72
2023/08/29 00:45:11;;;;;;;;;;;;;;;24.39;43.19;98909.63;3171495;28;20018;-72
2023/08/29 00:46:44;;;;;;;;;;;;;;;24.40;43.01;98909.47;3171667;28;19930;-72
2023/08/29 00:48:14;;;;;;;;;;;;;;;24.38;43.37;98903.47;3171970;28;19928;-72
2023/08/29 00:49:46;;;;;;;;;;;;;;;24.36;43.42;98902.00;3171804;28;19990;-72
2023/08/29 00:51:17;;;;;;;;;;;;;;;24.29;43.42;98902.72;3172013;28;19924;-72
2023/08/29 00:52:50;;;;;;;;;;;;;;;24.23;43.59;98907.94;3171578;28;20211;-72
2023/08/29 00:54:21;;;;;;;;;;;;;;;24.21;43.64;98908.09;3171033;28;19924;-72
2023/08/29 00:55:53;;;;;;;;;;;;;;;24.20;43.52;98908.28;3171804;28;19930;-72
2023/08/29 00:57:23;;;;;;;;;;;;;;;24.18;43.63;98908.47;3169651;28;19931;-71
2023/08/29 00:58:55;;;;;;;;;;;;;;;24.13;43.64;98902.84;3169096;28;19927;-72
2023/08/29 01:00:26;;;;;;;;;;;;;;;24.13;43.66;98900.19;3168279;28;19931;-72
2023/08/29 01:01:58;;;;;;;;;;;;;;;24.11;43.58;98902.22;3163200;28;20385;-71
2023/08/29 01:03:28;;;;;;;;;;;;;;;24.14;43.66;98909.00;3171576;28;20439;-72
2023/08/29 01:05:00;;;;;;;;;;;;;;;24.13;43.72;98897.53;3171872;28;19927;-72
2023/08/29 01:06:31;;;;;;;;;;;;;;;24.13;43.57;98902.84;3171493;28;19924;-71
2023/08/29 01:08:04;;;;;;;;;;;;;;;24.13;43.65;98905.50;3171964;28;20357;-72
2023/08/29 01:09:37;;;;;;;;;;;;;;;24.10;43.62;98897.88;3171713;28;19924;-71
2023/08/29 01:11:12;;;;;;;;;;;;;;;24.07;43.66;98898.22;3171351;28;20313;-72
2023/08/29 01:12:45;;;;;;;;;;;;;;;24.05;43.72;98900.25;3167086;28;20328;-72
2023/08/29 01:14:22;;;;;;;;;;;;;;;24.05;43.78;98897.59;3162312;28;19923;-71
2023/08/29 01:15:54;;;;;;;;;;;;;;;24.04;43.88;98901.25;3171476;28;19923;-72
2023/08/29 01:17:29;;;;;;;;;;;;;;;24.01;43.74;98897.09;3167211;28;19931;-72
2023/08/29 01:19:01;;;;;;;;;;;;;;;23.99;44.12;98895.66;3171109;28;19935;-71
2023/08/29 01:20:34;;;;;;;;;;;;;;;23.97;43.86;98887.84;3171525;28;19924;-71
2023/08/29 01:22:08;;;;;;;;;;;;;;;23.97;44.11;98892.34;3171451;28;19929;-71
2023/08/29 01:23:44;;;;;;;;;;;;;;;24.01;43.98;98888.31;3171138;28;19928;-71
2023/08/29 01:25:18;;;;;;;;;;;;;;;24.03;43.95;98888.97;3171236;28;20328;-71
2023/08/29 01:26:51;;;;;;;;;;;;;;;24.05;43.74;98886.97;3166759;28;20333;-71
2023/08/29 01:28:22;;;;;;;;;;;;;;;24.07;43.85;98882.28;3146508;28;20309;-72
2023/08/29 01:29:54;;;;;;;;;;;;;;;24.10;43.74;98889.06;3170260;28;19925;-70
2023/08/29 01:31:29;;;;;;;;;;;;;;;24.10;43.67;98889.91;3171394;28;19928;-71
2023/08/29 01:33:01;;;;;;;;;;;;;;;24.12;43.35;98879.91;3171168;28;19981;-71
2023/08/29 01:34:31;;;;;;;;;;;;;;;24.12;43.69;98877.25;3171177;28;20320;-72
2023/08/29 01:36:03;;;;;;;;;;;;;;;24.13;43.21;98878.06;3165278;28;20025;-71
2023/08/29 01:37:34;;;;;;;;;;;;;;;24.13;43.58;98876.25;3167211;28;19927;-71
2023/08/29 01:39:06;;;;;;;;;;;;;;;24.14;43.55;98877.91;3171408;28;20003;-71
2023/08/29 01:40:37;;;;;;;;;;;;;;;24.14;43.27;98882.41;3164277;28;19935;-71
2023/08/29 01:42:10;;;;;;;;;;;;;;;24.14;43.33;98877.91;3164850;28;19953;-72
2023/08/29 01:43:40;;;;;;;;;;;;;;;24.15;43.32;98879.56;3171076;28;19923;-72
2023/08/29 01:45:12;;;;;;;;;;;;;;;24.15;43.27;98876.06;3171084;28;19923;-71
2023/08/29 01:46:42;;;;;;;;;;;;;;;24.15;43.47;98868.09;3171163;28;19924;-71
2023/08/29 01:48:14;;;;;;;;;;;;;;;24.14;43.38;98869.13;3171190;28;20075;-71
2023/08/29 01:49:45;;;;;;;;;;;;;;;24.14;43.36;98874.44;3171090;28;19924;-71
2023/08/29 01:51:17;;;;;;;;;;;;;;;24.12;43.58;98879.91;3171283;28;19930;-71
2023/08/29 01:52:48;;;;;;;;;;;;;;;24.10;43.44;98873.13;3170871;28;19985;-71
2023/08/29 01:54:19;;;;;;;;;;;;;;;24.03;43.71;98875.66;3171257;28;19959;-71
2023/08/29 01:55:50;;;;;;;;;;;;;;;23.95;43.96;98871.22;3167759;28;19935;-70
2023/08/29 01:57:24;;;;;;;;;;;;;;;23.91;43.92;98882.41;3169587;28;19924;-72
2023/08/29 01:58:56;;;;;;;;;;;;;;;23.82;44.29;98871.81;3171025;28;19947;-71
2023/08/29 02:00:28;;;;;;;;;;;;;;;23.77;44.37;98868.03;3167337;28;20065;-71
2023/08/29 02:02:00;;;;;;;;;;;;;;;23.70;44.82;98859.94;3165329;28;19928;-71
2023/08/29 02:03:32;;;;;;;;;;;;;;;23.68;44.58;98861.09;3161820;28;19924;-71
2023/08/29 02:05:03;;;;;;;;;;;;;;;23.67;44.58;98862.94;3166149;28;19923;-72
2023/08/29 02:06:35;;;;;;;;;;;;;;;23.69;44.37;98855.59;3171081;28;19934;-72
2023/08/29 02:08:05;;;;;;;;;;;;;;;23.70;44.55;98857.28;3171078;28;19924;-73
2023/08/29 02:09:37;;;;;;;;;;;;;;;23.70;44.41;98859.94;3170928;28;19930;-72
2023/08/29 02:11:07;;;;;;;;;;;;;;;23.66;44.57;98869.22;3166798;28;19924;-72
2023/08/29 02:12:40;;;;;;;;;;;;;;;23.62;44.54;98859.97;3171017;28;19935;-72
2023/08/29 02:14:11;;;;;;;;;;;;;;;23.62;44.46;98865.28;3160712;28;19924;-72
2023/08/29 02:15:42;;;;;;;;;;;;;;;23.60;44.56;98864.63;3170497;28;19980;-72
2023/08/29 02:17:13;;;;;;;;;;;;;;;23.59;44.60;98860.31;3170523;28;20414;-72
2023/08/29 02:18:44;;;;;;;;;;;;;;;23.59;44.67;98868.28;3170952;28;19938;-72
2023/08/29 02:20:15;;;;;;;;;;;;;;;23.56;44.65;98866.00;3171019;28;19977;-72
2023/08/29 02:21:47;;;;;;;;;;;;;;;23.53;44.80;98863.69;3170474;28;19976;-72
2023/08/29 02:23:17;;;;;;;;;;;;;;;23.47;44.86;98865.19;3170574;28;19999;-73
2023/08/29 02:24:49;;;;;;;;;;;;;;;23.47;44.70;98859.06;3169219;28;19927;-73
2023/08/29 02:26:19;;;;;;;;;;;;;;;23.47;44.65;98867.03;3168116;28;19935;-73
2023/08/29 02:27:52;;;;;;;;;;;;;;;23.46;44.63;98860.91;3170435;28;19945;-73
2023/08/29 02:29:23;;;;;;;;;;;;;;;23.47;44.52;98859.06;3162157;28;19931;-73
2023/08/29 02:30:54;;;;;;;;;;;;;;;23.44;44.62;98854.09;3170726;28;19924;-73
2023/08/29 02:32:26;;;;;;;;;;;;;;;23.43;44.74;98863.09;3170493;28;19938;-72
2023/08/29 02:33:56;;;;;;;;;;;;;;;23.32;45.20;98858.97;3170856;28;19978;-73
2023/08/29 02:35:28;;;;;;;;;;;;;;;23.22;45.68;98859.22;3170865;28;19928;-73
2023/08/29 02:36:59;;;;;;;;;;;;;;;23.11;45.85;98855.09;3170368;28;19951;-72
2023/08/29 02:38:30;;;;;;;;;;;;;;;23.05;45.93;98860.28;3170427;28;19934;-72
2023/08/29 02:40:04;;;;;;;;;;;;;;;23.02;45.84;98860.63;3165730;28;20290;-73
2023/08/29 02:41:35;;;;;;;;;;;;;;;23.05;45.73;98862.94;3170540;28;20018;-72
2023/08/29 02:43:08;;;;;;;;;;;;;;;23.10;45.84;98863.22;3170532;28;20491;-73
2023/08/29 02:44:38;;;;;;;;;;;;;;;23.13;45.40;98860.22;3170823;28;19934;-73
2023/08/29 02:46:10;;;;;;;;;;;;;;;23.16;45.43;98854.59;3170364;28;19927;-72
2023/08/29 02:47:41;;;;;;;;;;;;;;;23.10;45.87;98856.09;3170369;28;19927;-73
2023/08/29 02:49:12;;;;;;;;;;;;;;;23.07;45.70;98844.97;3170627;28;19935;-73
2023/08/29 02:50:45;;;;;;;;;;;;;;;23.06;45.64;98848.63;3170163;28;19934;-72
2023/08/29 02:52:17;;;;;;;;;;;;;;;23.06;45.58;98848.63;3170203;28;19924;-73
2023/08/29 02:53:47;;;;;;;;;;;;;;;23.05;45.74;98847.81;3170702;28;20452;-73
2023/08/29 02:55:19;;;;;;;;;;;;;;;23.02;45.68;98844.69;3165037;28;20108;-72
2023/08/29 02:56:51;;;;;;;;;;;;;;;22.96;45.99;98848.03;3166589;28;19943;-72
2023/08/29 02:58:24;;;;;;;;;;;;;;;22.87;45.89;98848.03;3165446;28;19931;-72
2023/08/29 02:59:55;;;;;;;;;;;;;;;22.78;46.47;98841.09;3165233;28;20357;-73
2023/08/29 03:01:27;;;;;;;;;;;;;;;22.77;46.27;98850.03;3154697;28;20388;-73
2023/08/29 03:02:58;;;;;;;;;;;;;;;22.79;46.40;98849.88;3165105;28;20392;-72
2023/08/29 03:04:30;;;;;;;;;;;;;;;22.76;46.26;98843.06;3165269;28;19942;-73
2023/08/29 03:06:00;;;;;;;;;;;;;;;22.76;46.28;98845.72;3165291;28;19974;-72
2023/08/29 03:07:32;;;;;;;;;;;;;;;22.77;46.27;98847.38;3165061;28;20329;-73
2023/08/29 03:09:04;;;;;;;;;;;;;;;22.78;46.30;98849.06;3160719;28;19928;-73
2023/08/29 03:10:35;;;;;;;;;;;;;;;22.76;46.35;98835.13;3152354;28;19928;-73
2023/08/29 03:12:08;;;;;;;;;;;;;;;22.71;46.23;98842.75;3165355;28;19927;-73
2023/08/29 03:13:40;;;;;;;;;;;;;;;22.70;46.43;98843.75;3156601;28;19984;-72
2023/08/29 03:15:11;;;;;;;;;;;;;;;22.69;46.50;98844.78;3163567;28;20387;-72
2023/08/29 03:16:42;;;;;;;;;;;;;;;22.67;46.28;98852.88;3164533;28;19936;-72
2023/08/29 03:18:14;;;;;;;;;;;;;;;22.64;46.53;98850.56;3165102;28;19951;-72
2023/08/29 03:19:46;;;;;;;;;;;;;;;22.60;46.78;98848.44;3164942;28;19936;-73
2023/08/29 03:21:17;;;;;;;;;;;;;;;22.58;46.56;98850.44;3164764;28;20385;-73
2023/08/29 03:22:48;;;;;;;;;;;;;;;22.56;46.92;98847.09;3164888;28;19981;-72
2023/08/29 03:24:19;;;;;;;;;;;;;;;22.52;46.78;98846.63;3159068;28;20038;-72
2023/08/29 03:25:50;;;;;;;;;;;;;;;22.49;46.95;98844.31;3158300;28;19951;-72
2023/08/29 03:27:22;;;;;;;;;;;;;;;22.45;46.87;98846.47;3165089;28;19971;-72
2023/08/29 03:28:54;;;;;;;;;;;;;;;22.43;47.06;98848.47;3160367;28;20014;-72
2023/08/29 03:30:25;;;;;;;;;;;;;;;22.38;47.27;98848.13;3164821;28;19927;-72
2023/08/29 03:31:56;;;;;;;;;;;;;;;22.37;47.22;98851.78;3162815;28;19947;-72
2023/08/29 03:33:28;;;;;;;;;;;;;;;22.37;47.19;98843.00;3154206;28;20002;-72
2023/08/29 03:35:00;;;;;;;;;;;;;;;22.34;46.98;98843.34;3164652;28;19928;-73
2023/08/29 03:36:31;;;;;;;;;;;;;;;22.34;47.02;98844.16;3164990;28;19927;-72
2023/08/29 03:38:03;;;;;;;;;;;;;;;22.32;47.23;98842.69;3143841;28;20475;-72
2023/08/29 03:39:34;;;;;;;;;;;;;;;22.30;47.22;98845.47;3164351;28;20305;-72
2023/08/29 03:41:06;;;;;;;;;;;;;;;22.29;47.02;98846.47;3164957;28;19934;-72
2023/08/29 03:42:36;;;;;;;;;;;;;;;22.30;46.99;98847.31;3164620;28;20126;-73
2023/08/29 03:44:09;;;;;;;;;;;;;;;22.32;47.08;98850.63;3165096;28;20435;-72
2023/08/29 03:45:40;;;;;;;;;;;;;;;22.32;46.88;98845.31;3164698;28;20021;-72
2023/08/29 03:47:11;;;;;;;;;;;;;;;22.31;46.82;98851.63;3164929;28;20541;-72
2023/08/29 03:48:42;;;;;;;;;;;;;;;22.32;46.93;98851.44;3164876;28;19939;-72
2023/08/29 03:50:14;;;;;;;;;;;;;;;22.33;46.92;98855.78;3164952;28;20061;-72
2023/08/29 03:51:45;;;;;;;;;;;;;;;22.33;46.88;98853.13;3164495;28;19985;-72
2023/08/29 03:53:16;;;;;;;;;;;;;;;22.35;46.56;98845.81;3159553;28;19927;-72
2023/08/29 03:54:48;;;;;;;;;;;;;;;22.35;46.83;98845.00;3164910;28;20361;-72
2023/08/29 03:56:19;;;;;;;;;;;;;;;22.35;46.77;98845.81;3165234;28;19939;-72
2023/08/29 03:57:50;;;;;;;;;;;;;;;22.35;46.82;98837.03;3164811;28;19998;-72
2023/08/29 03:59:23;;;;;;;;;;;;;;;22.33;46.80;98834.56;3164668;28;19973;-72
2023/08/29 04:00:54;;;;;;;;;;;;;;;22.33;47.03;98831.06;3154029;28;19928;-72
2023/08/29 04:02:25;;;;;;;;;;;;;;;22.32;46.93;98835.53;3139930;28;20010;-71
2023/08/29 04:03:56;;;;;;;;;;;;;;;22.33;47.01;98831.91;3163018;28;19928;-72
2023/08/29 04:05:28;;;;;;;;;;;;;;;22.34;46.75;98832.72;3163845;28;20494;-71
2023/08/29 04:06:59;;;;;;;;;;;;;;;22.34;46.97;98830.91;3161437;28;19931;-71
2023/08/29 04:08:31;;;;;;;;;;;;;;;22.37;46.92;98835.88;3161426;28;19931;-71
2023/08/29 04:10:03;;;;;;;;;;;;;;;22.39;46.65;98830.38;3164898;28;19934;-71
2023/08/29 04:11:35;;;;;;;;;;;;;;;22.39;46.75;98839.19;3165044;28;20036;-72
2023/08/29 04:13:06;;;;;;;;;;;;;;;22.39;46.57;98839.19;3160998;28;20431;-71
2023/08/29 04:14:39;;;;;;;;;;;;;;;22.41;46.70;98839.84;3158415;28;20369;-71
2023/08/29 04:16:09;;;;;;;;;;;;;;;22.41;46.64;98839.00;3164922;28;20360;-72
2023/08/29 04:17:41;;;;;;;;;;;;;;;22.41;46.61;98839.84;3164607;28;19934;-72
2023/08/29 04:19:14;;;;;;;;;;;;;;;22.41;46.75;98831.88;3164945;28;19928;-71
2023/08/29 04:20:45;;;;;;;;;;;;;;;22.40;46.71;98835.53;3161671;28;20424;-72
2023/08/29 04:22:16;;;;;;;;;;;;;;;22.39;46.65;98835.69;3154782;28;20378;-72
2023/08/29 04:23:48;;;;;;;;;;;;;;;22.39;47.02;98836.53;3164696;28;20123;-71
2023/08/29 04:25:18;;;;;;;;;;;;;;;22.41;46.83;98841.66;3154490;28;20376;-72
2023/08/29 04:26:50;;;;;;;;;;;;;;;22.43;46.64;98850.28;3164857;28;20011;-71
2023/08/29 04:28:21;;;;;;;;;;;;;;;22.45;46.90;98851.78;3164997;28;20072;-71
2023/08/29 04:29:53;;;;;;;;;;;;;;;22.47;46.65;98859.56;3166953;28;19939;-71
2023/08/29 04:31:26;;;;;;;;;;;;;;;22.48;46.79;98854.09;3166993;28;19927;-71
2023/08/29 04:32:59;;;;;;;;;;;;;;;22.53;46.80;98844.78;3166866;28;19981;-71
2023/08/29 04:34:30;;;;;;;;;;;;;;;22.56;46.76;98839.16;3166727;28;19928;-72
2023/08/29 04:36:01;;;;;;;;;;;;;;;22.59;46.65;98839.63;3166574;28;19936;-72
2023/08/29 04:37:33;;;;;;;;;;;;;;;22.63;46.61;98838.31;3162584;28;19935;-71
2023/08/29 04:39:04;;;;;;;;;;;;;;;22.67;46.56;98829.00;3166468;28;19928;-73
2023/08/29 04:40:36;;;;;;;;;;;;;;;22.73;46.30;98832.81;3166727;28;20320;-72
2023/08/29 04:42:07;;;;;;;;;;;;;;;22.76;46.53;98827.16;3166779;28;19928;-73
2023/08/29 04:43:39;;;;;;;;;;;;;;;22.77;46.14;98828.78;3166556;28;20537;-71
2023/08/29 04:45:12;;;;;;;;;;;;;;;22.76;46.64;98831.63;3166402;28;19970;-73
2023/08/29 04:46:43;;;;;;;;;;;;;;;22.75;46.65;98835.28;3166935;28;19927;-71
2023/08/29 04:48:15;;;;;;;;;;;;;;;22.77;46.34;98838.59;3166898;28;19928;-70
2023/08/29 04:49:45;;;;;;;;;;;;;;;22.78;46.21;98840.25;3166752;28;20072;-71
2023/08/29 04:51:17;;;;;;;;;;;;;;;22.80;46.31;98843.56;3161181;28;19932;-71
2023/08/29 04:52:53;;;;;;;;;;;;;;;22.80;46.36;98844.38;3166550;28;19928;-71
2023/08/29 04:54:25;;;;;;;;;;;;;;;22.82;46.71;98847.69;3141779;28;20016;-72
2023/08/29 04:55:59;;;;;;;;;;;;;;;22.77;46.66;98850.03;3166589;28;19928;-72
2023/08/29 04:57:31;;;;;;;;;;;;;;;22.70;46.89;98846.41;3166446;28;19983;-71
2023/08/29 04:59:03;;;;;;;;;;;;;;;22.64;47.19;98852.41;3166542;28;20085;-72
2023/08/29 05:00:36;;;;;;;;;;;;;;;22.58;47.39;98850.44;3160826;28;20783;-71
2023/08/29 05:02:08;;;;;;;;;;;;;;;22.53;47.29;98850.91;3156836;28;19928;-71
2023/08/29 05:03:39;;;;;;;;;;;;;;;22.55;47.18;98851.59;3162987;28;19931;-71
2023/08/29 05:05:10;;;;;;;;;;;;;;;22.59;47.10;98854.72;3166413;28;19928;-71
2023/08/29 05:06:42;;;;;;;;;;;;;;;22.62;47.12;98854.38;3162104;28;19988;-73
2023/08/29 05:08:12;;;;;;;;;;;;;;;22.64;47.20;98855.88;3166580;28;19931;-71
2023/08/29 05:09:44;;;;;;;;;;;;;;;22.63;47.02;98854.22;3166332;28;20113;-71
2023/08/29 05:11:14;;;;;;;;;;;;;;;22.59;47.20;98854.72;3163637;28;19997;-71
2023/08/29 05:12:46;;;;;;;;;;;;;;;22.55;47.48;98854.25;3165054;28;20022;-71
2023/08/29 05:14:17;;;;;;;;;;;;;;;22.54;47.41;98852.59;3156972;28;20477;-71
2023/08/29 05:15:50;;;;;;;;;;;;;;;22.58;47.35;98855.72;3166059;28;19928;-71
2023/08/29 05:17:21;;;;;;;;;;;;;;;22.63;47.38;98850.75;3161719;28;20015;-73
2023/08/29 05:18:53;;;;;;;;;;;;;;;22.67;47.06;98857.38;3166511;28;20006;-72
2023/08/29 05:20:23;;;;;;;;;;;;;;;22.73;47.07;98851.38;3161988;28;19932;-73
2023/08/29 05:21:55;;;;;;;;;;;;;;;22.76;46.89;98850.22;3141442;28;20019;-73
2023/08/29 05:23:27;;;;;;;;;;;;;;;22.81;46.93;98842.56;3164557;28;19928;-73
2023/08/29 05:24:57;;;;;;;;;;;;;;;22.87;46.79;98848.03;3166274;28;19983;-73
2023/08/29 05:26:29;;;;;;;;;;;;;;;22.87;46.85;98840.06;3166727;28;20352;-70
2023/08/29 05:28:00;;;;;;;;;;;;;;;22.87;47.04;98844.53;3166469;28;19981;-72
2023/08/29 05:29:31;;;;;;;;;;;;;;;22.83;47.18;98848.53;3166258;28;19998;-72
2023/08/29 05:31:04;;;;;;;;;;;;;;;22.83;47.16;98856.47;3165868;28;19947;-72
2023/08/29 05:32:37;;;;;;;;;;;;;;;22.82;47.37;98860.16;3166067;28;19927;-72
2023/08/29 05:34:08;;;;;;;;;;;;;;;22.88;47.46;98854.16;3166417;28;19978;-72
2023/08/29 05:35:39;;;;;;;;;;;;;;;23.00;47.04;98851.97;3161380;28;20331;-72
2023/08/29 05:37:10;;;;;;;;;;;;;;;23.14;47.15;98845.97;3166044;28;19932;-72
2023/08/29 05:38:41;;;;;;;;;;;;;;;23.32;46.79;98848.34;3166088;28;19996;-72
2023/08/29 05:40:13;;;;;;;;;;;;;;;23.53;46.85;98834.44;3165861;28;19980;-72
2023/08/29 05:41:44;;;;;;;;;;;;;;;23.62;46.82;98831.56;3165854;28;19989;-72
2023/08/29 05:43:15;;;;;;;;;;;;;;;23.72;46.43;98831.38;3165890;28;19927;-72
2023/08/29 05:44:46;;;;;;;;;;;;;;;23.89;46.35;98829.41;3165824;28;19934;-72
2023/08/29 05:46:19;;;;;;;;;;;;;;;24.11;46.30;98837.53;3166259;28;20316;-72
2023/08/29 05:47:50;;;;;;;;;;;;;;;24.36;45.99;98841.63;3165800;28;20300;-72
2023/08/29 05:49:21;;;;;;;;;;;;;;;24.58;45.64;98839.09;3163346;28;20053;-72
2023/08/29 05:50:52;;;;;;;;;;;;;;;24.82;45.36;98844.19;3164100;28;19935;-71
2023/08/29 05:52:24;;;;;;;;;;;;;;;25.07;45.17;98841.22;3165984;28;20431;-73
2023/08/29 05:53:54;;;;;;;;;;;;;;;25.27;44.79;98844.97;3165813;28;19939;-72
2023/08/29 05:55:26;;;;;;;;;;;;;;;25.49;44.52;98845.00;3165704;28;19927;-71
2023/08/29 05:56:56;;;;;;;;;;;;;;;25.69;44.05;98839.88;3165934;28;19964;-72
2023/08/29 05:58:28;;;;;;;;;;;;;;;25.87;43.80;98846.44;3160209;28;20027;-72
2023/08/29 05:59:58;;;;;;;;;;;;;;;26.08;43.37;98847.47;3158740;28;19934;-72
2023/08/29 06:01:32;;;;;;;;;;;;;;;26.24;43.27;98841.84;3154465;28;19934;-72
2023/08/29 06:03:05;;;;;;;;;;;;;;;26.42;43.38;98840.56;3165463;28;19971;-72
2023/08/29 06:04:37;;;;;;;;;;;;;;;26.45;43.00;98829.47;3161311;28;20099;-72
2023/08/29 06:06:08;;;;;;;;;;;;;;;26.38;43.15;98842.75;3165556;28;20407;-72
2023/08/29 06:07:39;;;;;;;;;;;;;;;26.33;43.06;98840.69;3165746;28;19927;-72
2023/08/29 06:09:10;;;;;;;;;;;;;;;26.40;43.60;98840.72;3165863;28;20580;-72
2023/08/29 06:10:42;;;;;;;;;;;;;;;26.54;43.51;98842.50;3165609;28;19928;-72
2023/08/29 06:12:13;;;;;;;;;;;;;;;26.71;43.05;98840.38;3165993;28;20387;-72
2023/08/29 06:13:44;;;;;;;;;;;;;;;26.84;42.94;98842.28;3156427;28;19935;-72
2023/08/29 06:15:15;;;;;;;;;;;;;;;26.91;42.74;98836.97;3163568;28;19931;-72
2023/08/29 06:16:47;;;;;;;;;;;;;;;27.04;42.83;98830.88;3164215;28;19927;-72
2023/08/29 06:18:19;;;;;;;;;;;;;;;27.17;42.31;98833.63;3162078;28;20408;-72
2023/08/29 06:19:49;;;;;;;;;;;;;;;27.31;42.47;98827.28;3161437;28;19981;-72
2023/08/29 06:21:21;;;;;;;;;;;;;;;27.41;42.28;98833.06;3165434;28;19932;-72
2023/08/29 06:22:51;;;;;;;;;;;;;;;27.50;42.15;98830.22;3165328;28;20416;-73
2023/08/29 06:24:23;;;;;;;;;;;;;;;27.52;41.81;98825.50;3165371;28;19928;-72
2023/08/29 06:25:54;;;;;;;;;;;;;;;27.53;41.46;98835.16;3165415;28;19927;-71
2023/08/29 06:27:25;;;;;;;;;;;;;;;27.59;41.63;98823.66;3165643;28;20084;-71
2023/08/29 06:28:56;;;;;;;;;;;;;;;27.74;41.18;98828.81;3165307;28;19935;-71
2023/08/29 06:30:28;;;;;;;;;;;;;;;27.86;41.01;98824.53;3165199;28;19951;-70
2023/08/29 06:32:00;;;;;;;;;;;;;;;27.95;40.65;98823.31;3165389;28;19996;-71
2023/08/29 06:33:31;;;;;;;;;;;;;;;28.01;40.98;98819.84;3160943;28;19932;-73
2023/08/29 06:35:03;;;;;;;;;;;;;;;27.94;40.30;98810.97;3165636;28;19932;-70
2023/08/29 06:36:34;;;;;;;;;;;;;;;27.88;40.63;98817.97;3165242;28;20701;-71
2023/08/29 06:38:06;;;;;;;;;;;;;;;27.90;40.59;98818.59;3165526;28;20316;-71
2023/08/29 06:39:37;;;;;;;;;;;;;;;27.97;40.46;98823.94;3165443;28;20014;-71
2023/08/29 06:41:08;;;;;;;;;;;;;;;27.95;40.14;98820.63;3165426;28;19928;-71
2023/08/29 06:42:39;;;;;;;;;;;;;;;27.82;40.26;98821.44;3165459;28;19936;-71
2023/08/29 06:44:10;;;;;;;;;;;;;;;27.74;40.60;98823.47;3165245;28;20099;-71
2023/08/29 06:45:41;;;;;;;;;;;;;;;27.77;40.15;98817.72;3164976;28;20476;-72
2023/08/29 06:47:13;;;;;;;;;;;;;;;27.85;40.04;98823.72;3165434;28;19938;-72
2023/08/29 06:48:45;;;;;;;;;;;;;;;27.87;40.13;98819.00;3160545;28;20350;-71
2023/08/29 06:50:17;;;;;;;;;;;;;;;27.87;40.13;98813.66;3165295;28;19932;-72
2023/08/29 06:51:49;;;;;;;;;;;;;;;27.88;40.12;98811.78;3164382;28;19935;-72
2023/08/29 06:53:20;;;;;;;;;;;;;;;27.86;40.05;98817.34;3164902;28;19980;-71
2023/08/29 06:54:52;;;;;;;;;;;;;;;27.91;39.74;98811.38;3162428;28;19936;-72
2023/08/29 06:56:23;;;;;;;;;;;;;;;27.94;40.04;98807.47;3165244;28;19954;-72
2023/08/29 06:57:55;;;;;;;;;;;;;;;27.91;39.89;98811.38;3164852;28;20000;-72
2023/08/29 06:59:25;;;;;;;;;;;;;;;27.95;40.05;98811.78;3164806;28;19978;-72
2023/08/29 07:00:57;;;;;;;;;;;;;;;27.88;39.61;98807.25;3153718;28;20061;-72
2023/08/29 07:02:29;;;;;;;;;;;;;;;27.89;39.74;98811.59;3143805;28;19928;-71
2023/08/29 07:04:01;;;;;;;;;;;;;;;27.94;40.01;98810.16;3164341;28;19970;-71
2023/08/29 07:05:32;;;;;;;;;;;;;;;28.04;39.51;98798.00;3165374;28;19927;-72
2023/08/29 07:07:04;;;;;;;;;;;;;;;28.16;39.71;98808.91;3164938;28;19954;-72
2023/08/29 07:08:37;;;;;;;;;;;;;;;28.27;39.65;98800.22;3165124;28;19942;-71
2023/08/29 07:10:09;;;;;;;;;;;;;;;28.40;39.20;98801.28;3164863;28;20000;-72
2023/08/29 07:11:40;;;;;;;;;;;;;;;28.48;39.27;98798.38;3164671;28;20321;-71
2023/08/29 07:13:11;;;;;;;;;;;;;;;28.66;38.96;98803.06;3160310;28;20030;-70
2023/08/29 07:14:43;;;;;;;;;;;;;;;28.76;39.10;98801.59;3159071;28;19927;-72
2023/08/29 07:16:14;;;;;;;;;;;;;;;28.85;38.89;98809.44;3165222;28;20321;-72
2023/08/29 07:17:46;;;;;;;;;;;;;;;28.92;38.88;98807.53;3160180;28;20384;-71
2023/08/29 07:19:18;;;;;;;;;;;;;;;28.97;39.04;98802.38;3165268;28;19928;-72
2023/08/29 07:20:49;;;;;;;;;;;;;;;29.17;38.75;98799.63;3165021;28;20507;-72
2023/08/29 07:22:20;;;;;;;;;;;;;;;29.30;38.83;98801.41;3165220;28;19928;-72
2023/08/29 07:23:52;;;;;;;;;;;;;;;29.44;38.45;98798.44;3164672;28;19993;-72
2023/08/29 07:25:35;;;;;;;;;;;;;;;29.65;38.57;98799.97;3164989;28;19928;-73
2023/08/29 07:27:06;;;;;;;;;;;;;;;29.96;38.03;98802.84;3164792;28;19928;-72
2023/08/29 07:28:38;;;;;;;;;;;;;;;30.19;37.67;98799.56;3165002;28;20025;-72
2023/08/29 07:30:14;;;;;;;;;;;;;;;30.37;37.37;98799.59;3165226;28;19995;-72
2023/08/29 07:31:45;;;;;;;;;;;;;;;30.52;36.80;98797.38;3160844;28;19934;-72
2023/08/29 07:33:18;;;;;;;;;;;;;;;30.68;37.07;98797.84;3165133;28;19975;-72
2023/08/29 07:34:50;;;;;;;;;;;;;;;30.89;36.66;98810.06;3164848;28;19928;-72
2023/08/29 07:36:22;;;;;;;;;;;;;;;31.08;36.33;98800.09;3164637;28;20002;-72
2023/08/29 07:37:52;;;;;;;;;;;;;;;31.20;35.91;98799.09;3165010;28;19939;-72
2023/08/29 07:39:24;;;;;;;;;;;;;;;31.35;36.02;98806.78;3165057;28;19928;-72
2023/08/29 07:40:56;;;;;;;;;;;;;;;31.62;35.81;98804.53;3165010;28;19989;-72
2023/08/29 07:42:27;;;;;;;;;;;;;;;31.83;34.87;98799.69;3165128;28;19992;-72
2023/08/29 07:43:59;;;;;;;;;;;;;;;31.93;34.69;98803.44;3164634;28;20287;-72
2023/08/29 07:45:29;;;;;;;;;;;;;;;32.15;34.53;98802.88;3164930;28;19927;-72
2023/08/29 07:47:01;;;;;;;;;;;;;;;32.26;33.70;98804.75;3160089;28;20092;-72
2023/08/29 07:48:34;;;;;;;;;;;;;;;32.22;33.75;98800.91;3164790;28;20479;-72
2023/08/29 07:50:05;;;;;;;;;;;;;;;32.23;33.40;98802.53;3164894;28;19967;-72
2023/08/29 07:51:37;;;;;;;;;;;;;;;32.41;33.66;98807.78;3157461;28;20392;-72
2023/08/29 07:53:07;;;;;;;;;;;;;;;32.71;33.10;98795.25;3164525;28;20156;-72
2023/08/29 07:54:39;;;;;;;;;;;;;;;32.93;32.92;98795.44;3164697;28;20596;-73
2023/08/29 07:56:11;;;;;;;;;;;;;;;33.07;32.47;98796.84;3164942;28;19928;-72
2023/08/29 07:57:41;;;;;;;;;;;;;;;33.34;32.22;98780.03;3164739;28;20015;-72